createdAt,value
2019-02-15T00:00:46.514Z,28.43
2019-02-15T00:03:18.219Z,37.33
2019-02-15T00:05:49.851Z,30.17
2019-02-15T00:08:21.398Z,35.57
2019-02-15T00:10:52.945Z,33.43
2019-02-15T00:13:24.496Z,34.80
2019-02-15T00:15:56.093Z,32.57
2019-02-15T00:18:35.262Z,31.43
2019-02-15T00:21:20.504Z,26.60
2019-02-15T00:23:52.060Z,29.30
2019-02-15T00:26:23.597Z,29.87
2019-02-15T00:28:55.189Z,31.67
2019-02-15T00:31:26.731Z,31.20
2019-02-15T00:33:58.307Z,36.37
2019-02-15T00:36:29.966Z,35.50
2019-02-15T00:39:01.607Z,34.27
2019-02-15T00:41:34.366Z,40.20
2019-02-15T00:44:05.869Z,32.73
2019-02-15T00:46:39.047Z,30.40
2019-02-15T00:49:13.120Z,33.43
2019-02-15T00:51:48.925Z,36.83
2019-02-15T00:54:27.928Z,34.13
2019-02-15T00:57:01.114Z,35.03
2019-02-15T00:59:34.271Z,36.90
2019-02-15T01:02:10.511Z,38.43
2019-02-15T01:04:49.640Z,36.70
2019-02-15T01:07:25.750Z,34.80
2019-02-15T01:10:01.871Z,40.63
2019-02-15T01:12:35.037Z,37.47
2019-02-15T01:15:06.641Z,35.23
2019-02-15T01:17:38.901Z,40.93
2019-02-15T01:20:10.597Z,44.67
2019-02-15T01:22:42.104Z,42.17
2019-02-15T01:25:13.752Z,36.30
2019-02-15T01:27:49.983Z,38.83
2019-02-15T01:30:29.189Z,41.87
2019-02-15T01:33:02.478Z,42.37
2019-02-15T01:35:35.636Z,45.00
2019-02-15T01:38:25.295Z,39.40
2019-02-15T01:40:58.487Z,37.50
2019-02-15T01:43:46.720Z,44.57
2019-02-15T01:46:19.891Z,44.87
2019-02-15T01:48:51.409Z,42.60
2019-02-15T01:51:23.096Z,43.60
2019-02-15T01:53:54.704Z,53.20
2019-02-15T01:56:26.247Z,41.80
2019-02-15T01:58:57.855Z,41.53
2019-02-15T02:01:30.327Z,41.17
2019-02-15T02:04:01.894Z,46.37
2019-02-15T02:06:33.538Z,42.97
2019-02-15T02:09:05.747Z,49.00
2019-02-15T02:11:37.625Z,45.47
2019-02-15T02:14:09.203Z,40.87
2019-02-15T02:16:40.875Z,46.13
2019-02-15T02:19:12.435Z,40.97
2019-02-15T02:21:44.023Z,45.17
2019-02-15T02:24:15.623Z,42.87
2019-02-15T02:26:47.159Z,42.70
2019-02-15T02:29:18.687Z,41.00
2019-02-15T02:31:50.274Z,49.80
2019-02-15T02:34:21.813Z,39.00
2019-02-15T02:36:55.261Z,49.30
2019-02-15T02:39:26.831Z,44.33
2019-02-15T02:41:58.505Z,40.10
2019-02-15T02:44:30.528Z,46.43
2019-02-15T02:47:02.095Z,43.43
2019-02-15T02:49:34.695Z,47.97
2019-02-15T02:52:06.233Z,47.47
2019-02-15T02:54:37.834Z,48.13
2019-02-15T02:57:09.418Z,56.03
2019-02-15T02:59:41.067Z,44.90
2019-02-15T03:02:13.725Z,41.17
2019-02-15T03:04:45.260Z,47.53
2019-02-15T03:07:16.849Z,40.07
2019-02-15T03:09:48.383Z,46.00
2019-02-15T03:12:19.894Z,50.27
2019-02-15T03:14:51.562Z,45.13
2019-02-15T03:17:23.118Z,39.07
2019-02-15T03:19:54.647Z,45.70
2019-02-15T03:22:26.221Z,44.03
2019-02-15T03:24:57.792Z,45.47
2019-02-15T03:27:29.426Z,49.87
2019-02-15T03:30:00.954Z,45.77
2019-02-15T03:32:32.628Z,39.93
2019-02-15T03:35:07.965Z,44.83
2019-02-15T03:37:46.897Z,42.87
2019-02-15T03:40:20.079Z,42.70
2019-02-15T03:42:51.671Z,40.90
2019-02-15T03:45:23.197Z,36.03
2019-02-15T03:47:54.800Z,41.10
2019-02-15T03:50:27.398Z,34.77
2019-02-15T03:52:59.197Z,45.87
2019-02-15T03:55:30.776Z,42.83
2019-02-15T03:58:02.419Z,35.83
2019-02-15T04:00:33.944Z,45.23
2019-02-15T04:03:05.651Z,34.37
2019-02-15T04:05:37.179Z,43.93
2019-02-15T04:08:08.820Z,38.40
2019-02-15T04:10:40.392Z,39.63
2019-02-15T04:13:12.049Z,31.63
2019-02-15T04:15:43.671Z,45.63
2019-02-15T04:18:15.282Z,39.73
2019-02-15T04:20:46.860Z,39.40
2019-02-15T04:23:18.481Z,38.07
2019-02-15T04:25:50.004Z,38.50
2019-02-15T04:28:21.774Z,32.67
2019-02-15T04:30:53.416Z,39.47
2019-02-15T04:33:25.021Z,39.30
2019-02-15T04:35:57.704Z,36.53
2019-02-15T04:38:29.279Z,46.67
2019-02-15T04:41:00.818Z,37.67
2019-02-15T04:43:32.347Z,39.03
2019-02-15T04:46:03.869Z,43.63
2019-02-15T04:48:35.402Z,34.03
2019-02-15T04:51:06.927Z,37.33
2019-02-15T04:53:38.536Z,41.57
2019-02-15T04:56:10.224Z,39.33
2019-02-15T04:58:41.767Z,43.47
2019-02-15T05:01:13.428Z,33.60
2019-02-15T05:03:45.031Z,37.80
2019-02-15T05:06:16.624Z,39.47
2019-02-15T05:08:48.137Z,39.77
2019-02-15T05:11:19.738Z,45.67
2019-02-15T05:13:51.270Z,40.37
2019-02-15T05:16:22.945Z,35.13
2019-02-15T05:18:54.553Z,34.80
2019-02-15T05:21:26.101Z,40.07
2019-02-15T05:23:57.612Z,36.90
2019-02-15T05:26:29.255Z,33.80
2019-02-15T05:29:00.924Z,45.37
2019-02-15T05:31:32.456Z,35.03
2019-02-15T05:34:04.073Z,44.47
2019-02-15T05:36:35.594Z,39.27
2019-02-15T05:39:08.677Z,33.43
2019-02-15T05:41:40.434Z,33.33
2019-02-15T05:44:12.753Z,35.73
2019-02-15T05:46:45.352Z,41.43
2019-02-15T05:49:16.867Z,36.43
2019-02-15T05:51:48.450Z,35.27
2019-02-15T05:54:20.086Z,28.90
2019-02-15T05:56:51.726Z,34.43
2019-02-15T05:59:23.255Z,42.70
2019-02-15T06:01:56.583Z,39.07
2019-02-15T06:04:28.256Z,39.07
2019-02-15T06:06:59.833Z,37.80
2019-02-15T06:09:31.354Z,38.57
2019-02-15T06:12:02.876Z,37.17
2019-02-15T06:14:34.488Z,35.87
2019-02-15T06:17:07.175Z,36.10
2019-02-15T06:19:38.861Z,36.80
2019-02-15T06:22:10.695Z,37.50
2019-02-15T06:24:42.606Z,44.90
2019-02-15T06:27:14.253Z,31.23
2019-02-15T06:29:45.872Z,37.37
2019-02-15T06:32:17.701Z,40.10
2019-02-15T06:34:49.296Z,37.03
2019-02-15T06:37:20.879Z,38.50
2019-02-15T06:39:52.571Z,41.33
2019-02-15T06:42:24.232Z,41.40
2019-02-15T06:44:56.424Z,38.20
2019-02-15T06:47:28.106Z,38.03
2019-02-15T06:49:59.736Z,41.90
2019-02-15T06:52:31.313Z,34.67
2019-02-15T06:55:03.585Z,40.73
2019-02-15T06:57:35.268Z,38.50
2019-02-15T07:00:29.810Z,41.20
2019-02-15T07:03:07.690Z,38.73
2019-02-15T07:05:39.228Z,47.47
2019-02-15T07:08:11.060Z,39.07
2019-02-15T07:10:42.634Z,32.00
2019-02-15T07:13:14.812Z,46.17
2019-02-15T07:15:46.416Z,43.20
2019-02-15T07:18:17.951Z,43.60
2019-02-15T07:20:49.490Z,40.47
2019-02-15T07:23:21.031Z,39.23
2019-02-15T07:25:52.634Z,36.63
2019-02-15T07:28:24.705Z,36.27
2019-02-15T07:30:56.299Z,34.60
2019-02-15T07:33:27.842Z,37.07
2019-02-15T07:35:59.352Z,39.37
2019-02-15T07:38:30.879Z,33.30
2019-02-15T07:41:02.424Z,34.50
2019-02-15T07:43:34.543Z,35.40
2019-02-15T07:46:06.096Z,33.60
2019-02-15T07:48:37.600Z,44.63
2019-02-15T07:51:10.035Z,46.70
2019-02-15T07:53:41.740Z,45.40
2019-02-15T07:56:13.435Z,48.03
2019-02-15T07:58:44.978Z,48.83
2019-02-15T08:01:16.575Z,40.17
2019-02-15T08:03:48.100Z,44.70
2019-02-15T08:06:19.645Z,53.83
2019-02-15T08:08:51.180Z,52.20
2019-02-15T08:11:23.271Z,55.33
2019-02-15T08:13:54.872Z,58.33
2019-02-15T08:16:26.504Z,56.43
2019-02-15T08:18:59.127Z,66.17
2019-02-15T08:21:31.898Z,54.17
2019-02-15T08:24:03.478Z,51.30
2019-02-15T08:26:35.018Z,46.80
2019-02-15T08:29:06.543Z,37.97
2019-02-15T08:31:38.121Z,51.70
2019-02-15T08:34:09.741Z,60.00
2019-02-15T08:36:41.314Z,35.20
2019-02-15T08:39:12.870Z,56.03
2019-02-15T08:42:00.221Z,38.63
2019-02-15T08:44:17.703Z,42.90
2019-02-15T08:46:49.279Z,53.33
2019-02-15T08:49:20.833Z,51.67
2019-02-15T08:51:52.371Z,43.30
2019-02-15T08:54:23.917Z,47.37
2019-02-15T08:56:55.531Z,50.13
2019-02-15T08:59:27.058Z,60.83
2019-02-15T09:02:03.137Z,61.20
2019-02-15T09:04:34.654Z,73.10
2019-02-15T09:07:06.285Z,57.57
2019-02-15T09:09:38.043Z,59.10
2019-02-15T09:12:09.658Z,51.10
2019-02-15T09:14:41.260Z,57.57
2019-02-15T09:17:12.904Z,52.03
2019-02-15T09:19:44.444Z,53.47
2019-02-15T09:22:16.026Z,60.40
2019-02-15T09:24:47.629Z,58.27
2019-02-15T09:27:20.871Z,45.80
2019-02-15T09:29:52.576Z,47.90
2019-02-15T09:32:24.093Z,48.87
2019-02-15T09:34:55.905Z,31.17
2019-02-15T09:37:28.333Z,39.30
2019-02-15T09:39:59.864Z,39.83
2019-02-15T09:42:31.397Z,40.80
2019-02-15T09:45:02.992Z,33.77
2019-02-15T09:47:34.616Z,48.43
2019-02-15T09:50:10.344Z,30.30
2019-02-15T09:52:44.558Z,44.40
2019-02-15T09:55:16.165Z,41.27
2019-02-15T09:57:47.712Z,55.10
2019-02-15T10:00:19.272Z,33.43
2019-02-15T10:02:50.859Z,40.50
2019-02-15T10:05:22.375Z,35.00
2019-02-15T10:07:54.089Z,43.40
2019-02-15T10:10:25.889Z,40.77
2019-02-15T10:12:57.490Z,46.03
2019-02-15T10:15:29.125Z,39.07
2019-02-15T10:18:00.643Z,40.27
2019-02-15T10:20:32.641Z,45.70
2019-02-15T10:23:04.189Z,42.10
2019-02-15T10:25:35.803Z,42.30
2019-02-15T10:28:07.352Z,37.97
2019-02-15T10:30:39.022Z,47.73
2019-02-15T10:33:10.689Z,40.53
2019-02-15T10:35:42.243Z,51.27
2019-02-15T10:38:13.787Z,31.60
2019-02-15T10:40:45.324Z,27.20
2019-02-15T10:43:16.867Z,46.83
2019-02-15T10:45:48.399Z,48.87
2019-02-15T10:48:19.929Z,51.83
2019-02-15T10:50:51.471Z,33.03
2019-02-15T10:53:22.999Z,35.17
2019-02-15T10:55:54.598Z,38.33
2019-02-15T10:58:26.523Z,41.10
2019-02-15T11:00:58.091Z,49.73
2019-02-15T11:03:30.678Z,44.83
2019-02-15T11:06:02.267Z,35.93
2019-02-15T11:08:33.774Z,34.00
2019-02-15T11:11:05.463Z,35.47
2019-02-15T11:13:36.982Z,42.07
2019-02-15T11:16:08.518Z,29.97
2019-02-15T11:18:40.190Z,29.93
2019-02-15T11:21:11.734Z,38.23
2019-02-15T11:23:43.271Z,47.43
2019-02-15T11:26:14.850Z,32.03
2019-02-15T11:28:46.369Z,45.77
2019-02-15T11:31:17.923Z,46.27
2019-02-15T11:33:49.456Z,45.77
2019-02-15T11:36:22.326Z,48.93
2019-02-15T11:38:53.939Z,36.33
2019-02-15T11:41:25.493Z,37.03
2019-02-15T11:43:57.090Z,35.70
2019-02-15T11:46:28.681Z,34.57
2019-02-15T11:49:00.209Z,26.90
2019-02-15T11:51:31.846Z,38.67
2019-02-15T11:54:03.374Z,33.73
2019-02-15T11:56:34.972Z,32.40
2019-02-15T11:59:06.614Z,52.57
2019-02-15T12:01:38.295Z,53.60
2019-02-15T12:04:09.890Z,35.53
2019-02-15T12:06:41.455Z,36.47
2019-02-15T12:09:13.059Z,52.43
2019-02-15T12:11:44.593Z,41.87
2019-02-15T12:14:16.184Z,37.50
2019-02-15T12:16:47.808Z,28.40
2019-02-15T12:19:19.373Z,26.87
2019-02-15T12:21:51.277Z,29.50
2019-02-15T12:24:22.965Z,34.67
2019-02-15T12:26:54.506Z,40.10
2019-02-15T12:29:26.118Z,40.20
2019-02-15T12:31:57.665Z,40.13
2019-02-15T12:34:29.246Z,28.20
2019-02-15T12:37:00.785Z,38.67
2019-02-15T12:39:33.182Z,48.87
2019-02-15T12:42:04.831Z,31.10
2019-02-15T12:44:36.464Z,30.87
2019-02-15T12:47:14.860Z,32.33
2019-02-15T12:49:41.235Z,39.70
2019-02-15T12:52:12.869Z,43.07
2019-02-15T12:54:44.428Z,48.10
2019-02-15T12:57:16.080Z,52.20
2019-02-15T12:59:47.657Z,45.43
2019-02-15T13:02:19.350Z,42.27
2019-02-15T13:04:51.708Z,33.13
2019-02-15T13:07:24.811Z,38.93
2019-02-15T13:09:56.507Z,34.67
2019-02-15T13:12:28.050Z,33.03
2019-02-15T13:15:00.196Z,35.87
2019-02-15T13:17:31.964Z,31.27
2019-02-15T13:20:04.003Z,40.73
2019-02-15T13:22:35.553Z,33.70
2019-02-15T13:25:08.358Z,36.33
2019-02-15T13:27:40.036Z,35.73
2019-02-15T13:30:14.855Z,31.10
2019-02-15T13:32:46.471Z,42.50
2019-02-15T13:35:23.890Z,46.70
2019-02-15T13:37:55.477Z,48.73
2019-02-15T13:40:27.049Z,34.83
2019-02-15T13:42:58.751Z,36.60
2019-02-15T13:45:30.286Z,40.67
2019-02-15T13:48:01.971Z,29.27
2019-02-15T13:50:33.521Z,41.30
2019-02-15T13:53:05.235Z,45.00
2019-02-15T13:55:36.827Z,43.37
2019-02-15T13:58:08.516Z,47.43
2019-02-15T14:00:40.137Z,55.83
2019-02-15T14:03:11.806Z,28.80
2019-02-15T14:05:43.463Z,22.27
2019-02-15T14:08:16.491Z,39.57
2019-02-15T14:10:48.302Z,29.50
2019-02-15T14:13:19.847Z,35.40
2019-02-15T14:15:51.443Z,25.23
2019-02-15T14:18:23.046Z,36.87
2019-02-15T14:20:54.592Z,45.97
2019-02-15T14:23:26.173Z,49.30
2019-02-15T14:25:57.726Z,39.40
2019-02-15T14:28:29.287Z,56.47
2019-02-15T14:31:01.593Z,38.97
2019-02-15T14:33:33.166Z,37.47
2019-02-15T14:36:04.742Z,32.23
2019-02-15T14:38:36.338Z,29.67
2019-02-15T14:41:07.984Z,38.20
2019-02-15T14:43:39.515Z,43.67
2019-02-15T14:46:11.133Z,40.40
2019-02-15T14:48:42.824Z,59.30
2019-02-15T14:51:14.443Z,34.77
2019-02-15T14:53:46.005Z,37.50
2019-02-15T14:56:17.664Z,39.20
2019-02-15T14:58:49.318Z,42.80
2019-02-15T15:01:21.077Z,47.87
2019-02-15T15:03:52.711Z,60.17
2019-02-15T15:06:24.406Z,61.13
2019-02-15T15:08:55.961Z,56.97
2019-02-15T15:11:27.575Z,53.93
2019-02-15T15:13:59.245Z,57.90
2019-02-15T15:16:30.889Z,51.40
2019-02-15T15:19:02.487Z,40.20
2019-02-15T15:21:35.017Z,50.83
2019-02-15T15:24:06.655Z,50.07
2019-02-15T15:26:38.327Z,59.60
2019-02-15T15:29:09.934Z,35.50
2019-02-15T15:31:41.682Z,35.03
2019-02-15T15:34:13.283Z,39.03
2019-02-15T15:36:44.870Z,35.43
2019-02-15T15:39:16.553Z,47.57
2019-02-15T15:41:48.258Z,40.17
2019-02-15T15:44:19.927Z,38.27
2019-02-15T15:46:51.457Z,28.50
2019-02-15T15:49:22.974Z,56.53
2019-02-15T15:51:54.493Z,55.13
2019-02-15T15:54:26.589Z,46.73
2019-02-15T15:56:58.099Z,44.00
2019-02-15T15:59:29.855Z,55.70
2019-02-15T16:02:01.590Z,54.90
2019-02-15T16:04:34.830Z,50.37
2019-02-15T16:07:06.484Z,63.77
2019-02-15T16:09:38.010Z,52.27
2019-02-15T16:12:09.540Z,44.90
2019-02-15T16:14:41.216Z,35.20
2019-02-15T16:17:12.816Z,51.07
2019-02-15T16:19:49.224Z,52.30
2019-02-15T16:22:17.666Z,58.77
2019-02-15T16:24:49.347Z,50.27
2019-02-15T16:27:20.880Z,52.60
2019-02-15T16:29:52.480Z,54.90
2019-02-15T16:32:24.175Z,53.20
2019-02-15T16:34:55.815Z,64.30
2019-02-15T16:37:27.412Z,52.63
2019-02-15T16:39:59.070Z,72.30
2019-02-15T16:42:30.752Z,67.30
2019-02-15T16:45:02.353Z,50.40
2019-02-15T16:47:34.935Z,66.27
2019-02-15T16:50:08.462Z,59.50
2019-02-15T16:52:40.068Z,48.70
2019-02-15T16:55:13.287Z,65.30
2019-02-15T16:57:46.127Z,38.20
2019-02-15T17:00:17.706Z,45.20
2019-02-15T17:02:49.297Z,49.87
2019-02-15T17:05:38.768Z,37.77
2019-02-15T17:08:10.373Z,44.80
2019-02-15T17:10:41.907Z,64.80
2019-02-15T17:13:29.274Z,49.60
2019-02-15T17:16:01.812Z,46.67
2019-02-15T17:18:33.416Z,69.37
2019-02-15T17:21:05.153Z,59.87
2019-02-15T17:23:37.007Z,58.47
2019-02-15T17:26:08.593Z,50.30
2019-02-15T17:28:40.151Z,48.33
2019-02-15T17:31:11.751Z,56.40
2019-02-15T17:33:43.543Z,56.23
2019-02-15T17:36:15.078Z,69.80
2019-02-15T17:38:47.147Z,48.07
2019-02-15T17:41:18.876Z,53.93
2019-02-15T17:43:50.425Z,76.43
2019-02-15T17:46:22.097Z,81.77
2019-02-15T17:49:00.572Z,83.40
2019-02-15T17:51:27.109Z,45.03
2019-02-15T17:53:58.910Z,54.67
2019-02-15T17:56:30.432Z,68.60
2019-02-15T17:59:01.954Z,64.90
2019-02-15T18:01:34.706Z,76.87
2019-02-15T18:04:06.284Z,69.33
2019-02-15T18:06:37.794Z,66.90
2019-02-15T18:09:09.406Z,65.50
2019-02-15T18:11:41.012Z,56.50
2019-02-15T18:14:12.516Z,63.27
2019-02-15T18:16:44.039Z,76.57
2019-02-15T18:19:15.710Z,65.53
2019-02-15T18:21:47.487Z,73.60
2019-02-15T18:24:19.073Z,66.53
2019-02-15T18:26:50.656Z,68.67
2019-02-15T18:29:22.282Z,52.53
2019-02-15T18:31:53.940Z,59.40
2019-02-15T18:34:25.567Z,53.13
2019-02-15T18:36:57.162Z,65.40
2019-02-15T18:39:29.241Z,48.70
2019-02-15T18:42:00.868Z,50.40
2019-02-15T18:44:32.548Z,74.67
2019-02-15T18:47:04.542Z,50.10
2019-02-15T18:49:36.141Z,54.73
2019-02-15T18:52:07.699Z,72.97
2019-02-15T18:54:39.317Z,59.47
2019-02-15T18:57:11.268Z,63.17
2019-02-15T18:59:42.852Z,56.37
2019-02-15T19:02:14.390Z,62.87
2019-02-15T19:04:45.937Z,59.90
2019-02-15T19:07:18.714Z,47.10
2019-02-15T19:09:50.775Z,52.57
2019-02-15T19:12:22.668Z,59.97
2019-02-15T19:14:54.282Z,63.83
2019-02-15T19:17:25.823Z,52.37
2019-02-15T19:19:57.348Z,49.17
2019-02-15T19:22:29.027Z,53.33
2019-02-15T19:25:00.630Z,43.90
2019-02-15T19:27:32.192Z,56.63
2019-02-15T19:30:07.025Z,42.03
2019-02-15T19:32:38.779Z,43.77
2019-02-15T19:35:11.108Z,41.53
2019-02-15T19:37:43.855Z,38.97
2019-02-15T19:40:19.099Z,41.93
2019-02-15T19:42:54.886Z,37.90
2019-02-15T19:45:26.514Z,39.37
2019-02-15T19:47:58.504Z,42.93
2019-02-15T19:50:30.202Z,40.97
2019-02-15T19:53:01.823Z,37.47
2019-02-15T19:55:33.501Z,37.87
2019-02-15T19:58:05.106Z,38.47
2019-02-15T20:00:36.633Z,33.50
2019-02-15T20:03:08.315Z,31.57
2019-02-15T20:05:40.033Z,41.80
2019-02-15T20:08:11.651Z,34.67
2019-02-15T20:10:43.306Z,40.07
2019-02-15T20:13:15.044Z,42.53
2019-02-15T20:15:46.727Z,45.07
2019-02-15T20:18:18.280Z,42.67
2019-02-15T20:20:50.034Z,46.53
2019-02-15T20:23:21.634Z,52.47
2019-02-15T20:25:53.761Z,60.53
2019-02-15T20:28:25.489Z,59.90
2019-02-15T20:30:57.034Z,53.03
2019-02-15T20:33:28.709Z,56.93
2019-02-15T20:36:00.272Z,51.77
2019-02-15T20:38:31.867Z,50.83
2019-02-15T20:41:03.955Z,59.40
2019-02-15T20:43:35.563Z,48.30
2019-02-15T20:46:07.087Z,51.70
2019-02-15T20:48:38.605Z,50.07
2019-02-15T20:51:10.113Z,65.20
2019-02-15T20:53:41.666Z,61.53
2019-02-15T20:56:13.191Z,63.60
2019-02-15T20:58:45.490Z,55.57
2019-02-15T21:01:17.021Z,50.40
2019-02-15T21:03:48.605Z,53.20
2019-02-15T21:06:20.227Z,54.03
2019-02-15T21:08:51.853Z,62.30
2019-02-15T21:11:23.366Z,62.40
2019-02-15T21:13:55.492Z,64.30
2019-02-15T21:16:27.087Z,45.63
2019-02-15T21:18:58.615Z,46.83
2019-02-15T21:21:30.194Z,43.93
2019-02-15T21:24:01.802Z,55.17
2019-02-15T21:26:33.372Z,50.50
2019-02-15T21:29:04.886Z,55.63
2019-02-15T21:31:36.750Z,40.70
2019-02-15T21:34:08.457Z,33.13
2019-02-15T21:36:39.979Z,48.73
2019-02-15T21:39:11.583Z,45.83
2019-02-15T21:41:43.213Z,56.43
2019-02-15T21:44:14.721Z,81.73
2019-02-15T21:46:46.258Z,57.30
2019-02-15T21:49:17.763Z,61.47
2019-02-15T21:51:49.282Z,65.43
2019-02-15T21:54:20.870Z,62.53
2019-02-15T21:56:52.516Z,67.57
2019-02-15T21:59:24.084Z,66.80
2019-02-15T22:01:55.616Z,71.33
2019-02-15T22:04:27.263Z,56.40
2019-02-15T22:06:58.906Z,60.77
2019-02-15T22:09:30.443Z,70.43
2019-02-15T22:12:01.967Z,71.63
2019-02-15T22:14:33.541Z,53.93
2019-02-15T22:17:05.228Z,57.53
2019-02-15T22:19:36.746Z,48.90
2019-02-15T22:22:08.346Z,56.20
2019-02-15T22:24:39.899Z,51.53
2019-02-15T22:27:11.443Z,59.37
2019-02-15T22:29:43.116Z,63.00
2019-02-15T22:32:14.633Z,56.57
2019-02-15T22:34:46.158Z,56.67
2019-02-15T22:37:17.833Z,48.87
2019-02-15T22:39:49.377Z,54.07
2019-02-15T22:42:21.604Z,51.20
2019-02-15T22:44:53.202Z,44.47
2019-02-15T22:47:24.752Z,45.13
2019-02-15T22:49:56.295Z,44.37
2019-02-15T22:52:27.888Z,51.20
2019-02-15T22:54:59.494Z,56.63
2019-02-15T22:57:31.082Z,47.90
2019-02-15T23:00:04.125Z,41.77
2019-02-15T23:02:37.452Z,54.37
2019-02-15T23:05:09.065Z,42.67
2019-02-15T23:07:40.675Z,42.37
2019-02-15T23:10:12.539Z,47.80
2019-02-15T23:12:44.137Z,51.23
2019-02-15T23:15:15.649Z,49.93
2019-02-15T23:17:47.201Z,60.27
2019-02-15T23:20:18.704Z,57.93
2019-02-15T23:22:50.249Z,66.13
2019-02-15T23:25:21.856Z,62.47
2019-02-15T23:27:53.382Z,72.47
2019-02-15T23:30:24.990Z,68.67
2019-02-15T23:32:56.672Z,81.57
2019-02-15T23:35:28.319Z,71.83
2019-02-15T23:37:59.885Z,83.67
2019-02-15T23:40:31.422Z,73.73
2019-02-15T23:43:03.455Z,67.23
2019-02-15T23:45:34.977Z,77.70
2019-02-15T23:48:06.629Z,72.40
2019-02-15T23:50:38.140Z,73.17
2019-02-15T23:53:09.735Z,60.77
2019-02-15T23:55:41.280Z,70.23
2019-02-15T23:58:12.875Z,64.50
